Buffalo, MN

11:58 AM CST on December 05, 2019 (GMT -0600)
Buffalo

Weather History for KCFE - October, 2019

Change the Weather History Date:

Wednesday, October 2, 2019

  Actual Average (KMIC) Record (KMIC)
Temperature  
Mean Temperature 48 °F -  
Max Temperature 50 °F 62 °F 84 °F (2001)
Min Temperature 46 °F 39 °F 23 °F (2003)
Degree Days  
Heating Degree Days 18    
Moisture  
Dew Point 43 °F    
Average Humidity 86    
Maximum Humidity 94    
Minimum Humidity 77    
Precipitation  
Precipitation 0.32 in - - ()
Sea Level Pressure  
Sea Level Pressure 30.07 in    
Wind  
Wind Speed - (North)    
Max Wind Speed -    
Max Gust Speed -    
Visibility 8 miles    
Events Rain    
Averages and records for this station are not official NWS values.
T = Trace of Precipitation, MM = Missing Value Source: NWS Daily Summary

Daily Weather History Graph

Daily Weather History Graph

Search for Another Location

Airport or City:

Astronomy

Oct. 02, 2019 Rise Set
Actual Time 7:14 AM CDT 6:54 PM CDT
Civil Twilight 6:45 AM CDT 7:23 PM CDT
Nautical Twilight 6:10 AM CDT 7:57 PM CDT
Astronomical Twilight 5:36 AM CDT 8:32 PM CDT
Moon 11:52 AM CDT (10/2) 9:36 PM CDT (10/2)
Length of Visible Light 12h 38m
Length of Day
11h 39m
Waxing Crescent, 20% of the Moon is Illuminated
Oct 2
Waxing Crescent
Oct 5
First Quarter
Oct 13
Full
Oct 21
Last Quarter
Oct 27
New

Hourly Weather History & Observations

Time (CDT) Temp. Dew Point Humidity Pressure Visibility Wind Dir Wind Speed Gust Speed Precip Events Conditions
12:15 AM 49.1 °F 42.8 °F 79% 30.06 in 10.0 mi North - - N/A   Overcast
12:35 AM 48.6 °F 41.9 °F 78% 30.07 in 10.0 mi North - - N/A   Overcast
12:55 AM 48.2 °F 41.9 °F 79% 30.06 in 10.0 mi North - - N/A   Overcast
1:15 AM 47.8 °F 41.5 °F 79% 30.06 in 10.0 mi North - - N/A   Overcast
1:35 AM 47.8 °F 41.5 °F 79% 30.08 in 10.0 mi North - - N/A   Overcast
1:55 AM 47.5 °F 41.4 °F 79% 30.08 in 10.0 mi North - - N/A   Overcast
2:15 AM 47.3 °F 41.0 °F 79% 30.11 in 10.0 mi North - - N/A   Overcast
2:55 AM 46.6 °F 40.6 °F 80% 30.09 in 10.0 mi North - - N/A   Overcast
2:56 AM 46.6 °F 40.6 °F 80% 30.09 in 10.0 mi North - - N/A   Overcast
3:15 AM 46.4 °F 40.5 °F 80% 30.09 in 10.0 mi North - - N/A   Overcast
3:35 AM 46.4 °F 40.3 °F 79% 30.08 in 10.0 mi North - - N/A   Overcast
3:36 AM 46.4 °F 40.3 °F 79% 30.08 in 10.0 mi North - - N/A   Overcast
3:55 AM 46.4 °F 40.3 °F 79% 30.08 in 10.0 mi North - - N/A   Overcast
4:15 AM 46.4 °F 40.5 °F 80% 30.08 in 10.0 mi North - - N/A   Overcast
4:35 AM 46.4 °F 40.6 °F 80% 30.08 in 10.0 mi North - - N/A   Overcast
4:55 AM 46.4 °F 41.0 °F 81% 30.09 in 10.0 mi North - - N/A   Overcast
5:15 AM 46.4 °F 41.0 °F 81% 30.09 in 10.0 mi North - - N/A   Overcast
5:16 AM 46.4 °F 41.0 °F 81% 30.09 in 10.0 mi North - - N/A   Overcast
5:35 AM 46.4 °F 41.0 °F 81% 30.10 in 10.0 mi North - - N/A   Overcast
5:55 AM 46.4 °F 41.0 °F 81% 30.11 in 10.0 mi North - - N/A   Overcast
6:15 AM 46.4 °F 41.2 °F 82% 30.11 in 10.0 mi North - - N/A   Overcast
6:35 AM 46.4 °F 41.4 °F 83% 30.11 in 10.0 mi North - - N/A   Overcast
6:55 AM 46.4 °F 41.5 °F 83% 30.11 in 10.0 mi North - - N/A   Overcast
7:35 AM 46.4 °F 41.9 °F 84% 30.12 in 10.0 mi North - - N/A   Overcast
7:55 AM 46.8 °F 42.1 °F 84% 30.11 in 10.0 mi North - - N/A   Overcast
8:15 AM 47.7 °F 42.8 °F 83% 30.10 in 10.0 mi North - - N/A   Overcast
8:35 AM 47.8 °F 42.4 °F 82% 30.11 in 10.0 mi North - - N/A   Overcast
8:36 AM 47.8 °F 42.4 °F 82% 30.11 in 10.0 mi North - - N/A   Overcast
8:55 AM 48.0 °F 42.4 °F 81% 30.11 in 10.0 mi North - - N/A   Overcast
9:15 AM 48.2 °F 42.8 °F 82% 30.11 in 10.0 mi North - - N/A   Overcast
9:16 AM 48.2 °F 42.8 °F 82% 30.11 in 10.0 mi North - - N/A   Overcast
9:35 AM 48.6 °F 42.8 °F 80% 30.11 in 10.0 mi North - - N/A   Overcast
9:55 AM 48.4 °F 42.6 °F 80% 30.11 in 10.0 mi North - - N/A   Overcast
10:15 AM 48.7 °F 42.8 °F 80% 30.11 in 10.0 mi North - - N/A   Overcast
10:35 AM 49.1 °F 43.0 °F 79% 30.11 in 10.0 mi North - - N/A   Overcast
10:55 AM 49.1 °F 43.0 °F 79% 30.10 in 10.0 mi North - - N/A   Overcast
11:15 AM 49.1 °F 43.0 °F 79% 30.12 in 10.0 mi North - - N/A   Overcast
11:35 AM 49.1 °F 43.0 °F 79% 30.12 in 10.0 mi North - - N/A   Overcast
11:36 AM 49.1 °F 43.0 °F 79% 30.12 in 10.0 mi North - - N/A   Overcast
11:55 AM 49.6 °F 43.0 °F 78% 30.09 in 10.0 mi North - - N/A   Overcast
12:15 PM 49.1 °F 42.3 °F 77% 30.11 in 10.0 mi North - - N/A   Overcast
12:16 PM 49.1 °F 42.4 °F 78% 30.11 in 10.0 mi North - - N/A   Overcast
12:35 PM 48.4 °F 42.8 °F 81% 30.13 in 10.0 mi North - - N/A Rain Rain
12:55 PM 47.8 °F 43.3 °F 84% 30.13 in 10.0 mi North - - 0.01 in Rain Light Rain
12:56 PM 47.8 °F 43.3 °F 84% 30.13 in 10.0 mi North - - 0.01 in Rain Light Rain
1:15 PM 46.6 °F 42.8 °F 87% 30.11 in 7.0 mi North - - 0.03 in Rain Rain
1:35 PM 46.4 °F 43.0 °F 88% 30.11 in 5.0 mi North - - 0.10 in Rain Rain
1:55 PM 46.4 °F 43.3 °F 89% 30.08 in 5.0 mi North - - 0.15 in Rain Rain
1:56 PM 46.4 °F 43.3 °F 89% 30.08 in 5.0 mi North - - 0.15 in Rain Rain
2:15 PM 46.4 °F 43.7 °F 90% 30.09 in 7.0 mi North - - 0.03 in Rain Rain
2:16 PM 46.4 °F 43.7 °F 90% 30.09 in 7.0 mi North - - 0.03 in Rain Rain
2:35 PM 46.8 °F 44.2 °F 91% 30.07 in 7.0 mi North - - 0.06 in Rain Rain
2:36 PM 46.9 °F 44.2 °F 90% 30.07 in 7.0 mi North - - 0.06 in Rain Rain
2:55 PM 46.8 °F 44.1 °F 90% 30.07 in 10.0 mi North - - 0.07 in Rain Light Rain
2:56 PM 46.8 °F 44.1 °F 90% 30.07 in 10.0 mi North - - 0.07 in Rain Light Rain
3:15 PM 46.9 °F 44.2 °F 90% 30.07 in 10.0 mi North - - N/A   Light Drizzle
3:16 PM 46.9 °F 44.2 °F 90% 30.07 in 10.0 mi North - - N/A   Light Drizzle
3:35 PM 46.9 °F 44.2 °F 90% 30.03 in 7.0 mi North - - N/A   Light Drizzle
3:55 PM 47.3 °F 44.6 °F 90% 30.03 in 7.0 mi North - - 0.01 in   Light Drizzle
3:56 PM 47.3 °F 44.6 °F 90% 30.03 in 7.0 mi North - - 0.01 in   Light Drizzle
4:15 PM 47.3 °F 44.6 °F 90% 30.03 in 10.0 mi North - - N/A   Light Drizzle
4:35 PM 47.3 °F 44.2 °F 89% 30.04 in 10.0 mi North - - N/A   Light Drizzle
4:55 PM 47.3 °F 44.2 °F 89% 30.02 in 10.0 mi North - - N/A Rain Light Rain
4:56 PM 47.3 °F 44.2 °F 89% 30.02 in 10.0 mi North - - N/A Rain Light Rain
5:15 PM 47.3 °F 44.2 °F 89% 30.03 in 4.0 mi North - - N/A   Light Drizzle
5:35 PM 46.9 °F 44.2 °F 90% 30.04 in 4.0 mi North - - N/A   Light Drizzle
5:55 PM 46.8 °F 44.2 °F 91% 30.04 in 3.0 mi North - - N/A Rain Light Rain
6:15 PM 46.6 °F 44.2 °F 92% 30.05 in 3.0 mi North - - N/A   Light Drizzle
6:35 PM 46.4 °F 44.1 °F 92% 30.02 in 2.5 mi North - - 0.01 in   Drizzle
6:55 PM 46.4 °F 44.1 °F 92% 30.02 in 3.0 mi North - - 0.01 in   Drizzle
6:56 PM 46.4 °F 44.1 °F 92% 30.02 in 4.0 mi North - - 0.01 in   Drizzle
7:15 PM 46.4 °F 44.1 °F 92% 30.03 in 5.0 mi North - - N/A   Overcast
7:35 PM 46.4 °F 44.2 °F 92% 30.03 in 7.0 mi North - - N/A   Overcast
7:55 PM 46.4 °F 44.4 °F 93% 30.02 in 3.0 mi North - - N/A   Overcast
7:56 PM 46.4 °F 44.4 °F 93% 30.02 in 2.5 mi North - - N/A   Overcast
8:15 PM 46.4 °F 44.6 °F 93% 30.01 in 4.0 mi North - - 0.01 in   Light Drizzle
8:35 PM 46.4 °F 44.6 °F 93% 30.01 in 3.0 mi North - - 0.01 in   Drizzle
8:55 PM 46.6 °F 44.6 °F 93% 30.03 in 3.0 mi North - - 0.01 in   Drizzle
9:15 PM 46.4 °F 44.6 °F 93% 30.03 in 3.0 mi North - - N/A   Drizzle
9:35 PM 46.6 °F 44.6 °F 93% 30.03 in 3.0 mi North - - 0.02 in Rain Light Rain
9:55 PM 46.6 °F 44.6 °F 93% 30.03 in 3.0 mi North - - 0.03 in Rain Light Rain
9:56 PM 46.6 °F 44.6 °F 93% 30.03 in 3.0 mi North - - 0.03 in Rain Light Rain
10:15 PM 46.6 °F 44.8 °F 93% 30.04 in 3.0 mi North - - 0.01 in   Drizzle
10:35 PM 46.6 °F 44.8 °F 93% 30.02 in 4.0 mi North - - 0.01 in   Drizzle
10:55 PM 46.6 °F 44.8 °F 93% 30.02 in 4.0 mi North - - 0.02 in   Drizzle
11:15 PM 46.6 °F 44.8 °F 93% 30.02 in 3.0 mi North - - 0.01 in   Drizzle
11:35 PM 46.4 °F 44.8 °F 94% 30.01 in 4.0 mi North - - 0.01 in   Drizzle
11:36 PM 46.4 °F 44.8 °F 94% 30.01 in 4.0 mi North - - 0.01 in   Drizzle
11:55 PM 46.4 °F 44.8 °F 94% 30.01 in 4.0 mi North - - 0.01 in   Light Drizzle